ADDS METAR Data INFO
IDs: Format: Raw Decoded Include TAF

Data at: 0750 UTC 20 Feb 2018

KRBD 200745Z AUTO 17019G26KT 9SM SCT021 SCT040 BKN050 22/19 A2984 RMK AO2 PK WND 16029/0726 T02220189
KRBD 200653Z AUTO 17017G23KT 10SM OVC019 22/19 A2983 RMK AO2 SLP095 T02220189
KRBD 200553Z AUTO 16013G23KT 10SM BKN019 OVC028 22/19 A2984 RMK AO2 SLP096 60002 T02170189 10239 20211 402560172 51001
KRBD 200453Z AUTO 16015G21KT 10SM OVC020 21/18 A2984 RMK AO2 SLP096 T02110183
KRBD 200353Z AUTO 17012G18KT 10SM BKN024 21/17 A2983 RMK AO2 RAE0258 SLP096 P0000 T02110172
KRBD 200350Z AUTO 17009G18KT 10SM BKN024 21/17 A2983 RMK AO2 RAE0258 P0000
KRBD 200328Z AUTO 16015KT 10SM SCT027 21/17 A2981 RMK AO2 RAE0258 P0000 T02110172
KRBD 200253Z AUTO 16015G18KT 10SM -RA BKN027 BKN055 OVC120 21/17 A2982 RMK AO2 PK WND 16028/0209 LTG DSNT NE AND S SLP092 P0001 60002 T02110172 50004
KRBD 200248Z 17011KT 10SM -RA BKN027 BKN055 OVC110 21/17 A2983 RMK AO2 PK WND 16028/0209 LTG DSNT NE AND S P0001
KRBD 200153Z 16018G26KT 10SM -RA SCT050 BKN075 OVC090 22/17 A2981 RMK AO2 PK WND 17030/0116 LTG DSNT SW SLP088 P0001 T02220167
KRBD 200053Z 17015G25KT 10SM -RA FEW032 SCT042 OVC055 23/18 A2981 RMK AO2 RAB2355E06B11 SLP087 P0000 T02330183
KRBD 192353Z 16013G21KT 10SM FEW044 BKN055 24/18 A2979 RMK AO2 PK WND 16028/2320 RAE06 SLP079 P0000 60000 T02390178 10256 20233 55002
KRBD 192253Z 17013G25KT 9SM -RA FEW037 BKN048 OVC065 24/17 A2978 RMK AO2 PK WND 16028/2212 RAB53 SLP077 P0000 T02440172
KRBD 192153Z 18017G25KT 10SM FEW044 OVC060 26/17 A2978 RMK AO2 PK WND 17028/2140 SLP075 T02560167
KRBD 192053Z 18014G26KT 10SM SCT047 OVC060 25/17 A2979 RMK AO2 PK WND 17028/1958 LTG DSNT NE RAB31E52 SLP081 P0000 60000 T02500167 58016
KRBD 191953Z 18016G24KT 10SM BKN041 OVC050 24/17 A2981 RMK AO2 PK WND 17028/1902 SLP086 T02440172
KRBD 191853Z 18016G32KT 10SM BKN032 OVC044 24/17 A2983 RMK AO2 PK WND 18034/1757 RAE1755 SLP094 P0000 T02390172
KRBD 191753Z 18018G31KT 10SM -RA SCT027 BKN032 BKN120 24/18 A2984 RMK AO2 PK WND 19032/1713 RAB27 SLP098 P0000 60000 T02390178 10239 20200 50000
KRBD 191653Z 17019G28KT 10SM FEW023 SCT110 23/18 A2984 RMK AO2 PK WND 16032/1618 RAB03E13 SLP100 P0000 T02280178
KRBD 191618Z 17021G32KT 10SM FEW021 SCT026 SCT110 22/18 A2984 RMK AO2 PK WND 16032/1618 RAB03E13 P0000 T02220183
KRBD 191553Z 18016G27KT 10SM BKN022 OVC026 22/18 A2984 RMK AO2 PK WND 17032/1527 SLP100 T02220183
KRBD 191453Z 18015G28KT 10SM OVC018 21/18 A2984 RMK AO2 PK WND 17028/1432 SLP099 T02110183 53004
KRBD 191353Z 17019G30KT 10SM BKN016 OVC024 21/18 A2982 RMK AO2 PK WND 17030/1352 SLP094 T02110183
KRBD 191253Z 17020G29KT 10SM BKN016 OVC021 21/18 A2982 RMK AO2 PK WND 16031/1243 SLP094 T02060183
KRBD 191240Z AUTO 17020G26KT 10SM BKN016 OVC021 21/18 A2982 RMK AO2 PK WND 17029/1213 T02060178
KRBD 191231Z AUTO 16018G29KT 10SM OVC014 20/18 A2982 RMK AO2 PK WND 17029/1213 T02000178
KRBD 191153Z AUTO 16017G23KT 10SM OVC015 20/18 A2983 RMK AO2 SLP095 60000 70018 T02000178 10200 20172 58010
KRBD 191124Z AUTO 17013G21KT 10SM OVC015 20/18 A2986 RMK AO2 T02000178
KRBD 191053Z AUTO 17014G23KT 10SM OVC014 20/18 A2987 RMK AO2 RAB40E49 SLP109 P0000 T02000178
KRBD 191014Z AUTO 17010G19KT 10SM OVC014 19/17 A2986 RMK AO2 T01940172
KRBD 190953Z AUTO 17014G21KT 10SM OVC015 19/17 A2986 RMK AO2 SLP106 T01940172
KRBD 190853Z AUTO 17012G21KT 10SM OVC016 19/17 A2986 RMK AO2 PK WND 16030/0758 LTG DSNT E SLP106 T01940167 55006
KRBD 190753Z AUTO 17017G26KT 10SM OVC020 19/17 A2985 RMK AO2 PK WND 15029/0703 SLP103 T01940167
KRBD 190710Z AUTO 17015G29KT 10SM BKN018 19/17 A2985 RMK AO2 PK WND 15029/0703 LTG DSNT E T01890167
KRBD 190653Z AUTO 17018G26KT 10SM FEW018 19/17 A2985 RMK AO2 PK WND 18026/0653 LTG DSNT SE SLP104 T01890167
KRBD 190553Z AUTO 16009KT 9SM CLR 17/16 A2987 RMK AO2 LTG DSNT E-S SLP113 T01720161 10172 20161 401720067 58005
KRBD 190453Z AUTO 16008KT 4SM BR SCT002 16/16 A2988 RMK AO2 SLP117 T01610161
KRBD 190449Z AUTO 16008KT 4SM BR SCT002 16/16 A2988 RMK AO2
KRBD 190426Z AUTO 15007KT 2SM BR OVC002 16/16 A2989 RMK AO2 T01610161
KRBD 190353Z AUTO 15008KT 1 3/4SM BR OVC002 16/16 A2989 RMK AO2 SLP119 T01610156
KRBD 190338Z AUTO 15008KT 2SM BR OVC002 16/16 A2989 RMK AO2 T01610161
KRBD 190253Z AUTO 15007KT 1 1/2SM BR OVC002 16/16 A2989 RMK AO2 SLP120 T01610161 50000
KRBD 190206Z 16009KT 2 1/2SM BR OVC003 17/16 A2990 RMK AO2 T01670161
KRBD 190153Z 16007KT 3SM BR OVC003 17/16 A2990 RMK AO2 SLP122 T01670161
KRBD 190053Z 17008KT 4SM BR OVC004 17/16 A2990 RMK AO2 SLP122 T01670161
KRBD 190034Z 17010KT 4SM BR OVC004 17/16 A2989 RMK AO2 T01670161
KRBD 182353Z 17010KT 5SM BR OVC005 16/16 A2989 RMK AO2 SLP119 60018 T01610156 10161 20111 50014
KRBD 182253Z 17009G18KT 7SM OVC005 16/15 A2990 RMK AO2 SLP123 T01560150
KRBD 182210Z 19006G16KT 6SM BR OVC005 16/15 A2991 RMK AO2 T01560150
KRBD 182153Z 19010G22KT 7SM OVC004 15/14 A2988 RMK AO2 PK WND 17037/2057 RAE19B37E48 PRESRR SLP117 P0000 T01500144
KRBD 182113Z 16021G31KT 4SM -RA BR BKN004 BKN043 OVC100 14/13 A2985 RMK AO2 PK WND 17037/2057 P0000 T01390133
KRBD 182053Z 16025G36KT 5SM -RA BR FEW006 SCT050 OVC100 14/13 A2985 RMK AO2 PK WND 15037/2025 PRESFR SLP106 P0006 60018 T01390128 58085
KRBD 182045Z 17027G36KT 3SM -RA BR SCT006 SCT048 OVC100 13/13 A2987 RMK AO2 PK WND 15037/2025 P0006 T01330128
KRBD 182034Z 17023G37KT 3SM -RA BR SCT006 BKN016 OVC100 13/13 A2989 RMK AO2 PK WND 15037/2025 P0004 T01330128
KRBD 182031Z 17021G37KT 2 1/2SM -RA BR SCT006 BKN048 OVC090 13/12 A2990 RMK AO2 PK WND 15037/2025 P0004 T01280122
KRBD 182000Z 16017G29KT 4SM -RA BR SCT005 SCT065 OVC100 12/12 A2994 RMK AO2 PK WND 16029/1954 P0000 T01220117
KRBD 181953Z 16018G25KT 4SM -RA BR BKN005 BKN060 OVC100 12/12 A2995 RMK AO2 PK WND 17026/1944 PRESFR SLP139 P0011 T01220117